Time;durP1;ratioP1;P1;durP2;ratioP2;P2;SDS_P1;SDS_P2;PMS_P1;PMS_P2;Temp;Humidity;BMP_temperature;BMP_pressure;BME280_temperature;BME280_humidity;BME280_pressure;Samples;Min_cycle;Max_cycle;Signal;HPM_P1;HPM_P2
2023/07/12 00:02:22;;;;;;;;;;;;;;;;;;5092149;28;19986;-73
2023/07/12 00:04:50;;;;;;;;;;;;;;;;;;5051948;28;19965;-74
2023/07/12 00:07:15;;;;;;;;;;;;;;;;;;5073788;28;19920;-72
2023/07/12 00:09:43;;;;;;;;;;;;;;;;;;5076575;28;20394;-71
2023/07/12 00:12:10;;;;;;;;;;;;;;;;;;5091926;28;19915;-73
2023/07/12 00:14:36;;;;;;;;;;;;;;;;;;5094892;28;19919;-73
2023/07/12 00:17:01;;;;;;;;;;;;;;;;;;5074123;28;19919;-73
2023/07/12 00:19:26;;;;;;;;;;;;;;;;;;5073712;28;20008;-73
2023/07/12 00:21:54;;;;;;;;;;;;;;;;;;5057257;28;19968;-73
2023/07/12 00:24:20;;;;;;;;;;;;;;;;;;5092555;28;19920;-71
2023/07/12 00:26:45;;;;;;;;;;;;;;;;;;5077453;28;20056;-72
2023/07/12 00:29:13;;;;;;;;;;;;;;;;;;5052543;28;19923;-73
2023/07/12 00:31:38;;;;;;;;;;;;;;;;;;5074347;28;19920;-71
2023/07/12 00:34:03;;;;;;;;;;;;;;;;;;5056950;28;19947;-72
2023/07/12 00:36:28;;;;;;;;;;;;;;;;;;5071824;28;19920;-72
2023/07/12 00:38:54;;;;;;;;;;;;;;;;;;5071375;28;19924;-73
2023/07/12 00:41:19;;;;;;;;;;;;;;;;;;5075923;28;19955;-73
2023/07/12 00:43:47;;;;;;;;;;;;;;;;;;5073739;28;19931;-71
2023/07/12 00:46:15;;;;;;;;;;;;;;;;;;5058714;28;19923;-72
2023/07/12 00:51:59;;;;;;;;;;;;;;;;;;5090969;28;20519;-72
2023/07/12 00:54:25;;;;;;;;;;;;;;;;;;5055956;28;20077;-72
2023/07/12 00:56:53;;;;;;;;;;;;;;;;;;5090718;28;20732;-71
2023/07/12 00:59:21;;;;;;;;;;;;;;;;;;5087023;28;19923;-73
2023/07/12 01:01:49;;;;;;;;;;;;;;;;;;5093336;28;19920;-72
2023/07/12 01:04:15;;;;;;;;;;;;;;;;;;5073211;28;20493;-71
2023/07/12 01:06:40;;;;;;;;;;;;;;;;;;5075013;28;19961;-71
2023/07/12 01:09:08;;;;;;;;;;;;;;;;;;5055960;28;19931;-72
2023/07/12 01:11:36;;;;;;;;;;;;;;;;;;5073474;28;19946;-72
2023/07/12 01:14:02;;;;;;;;;;;;;;;;;;5093832;27;20671;-73
2023/07/12 01:16:27;;;;;;;;;;;;;;;;;;5073150;28;19916;-72
2023/07/12 01:18:52;;;;;;;;;;;;;;;;;;5072978;28;20020;-70
2023/07/12 01:21:20;;;;;;;;;;;;;;;;;;5057382;28;19920;-70
2023/07/12 01:23:49;;;;;;;;;;;;;;;;;;5056533;28;19924;-72
2023/07/12 01:26:15;;;;;;;;;;;;;;;;;;5070708;28;20356;-74
2023/07/12 01:28:43;;;;;;;;;;;;;;;;;;5054772;28;20285;-75
2023/07/12 01:31:09;;;;;;;;;;;;;;;;;;5074815;28;20436;-74
2023/07/12 01:33:34;;;;;;;;;;;;;;;;;;5091407;28;20041;-73
2023/07/12 01:36:01;;;;;;;;;;;;;;;;;;5094181;28;20081;-70
2023/07/12 01:38:31;;;;;;;;;;;;;;;;;;5091617;28;20358;-73
2023/07/12 01:40:56;;;;;;;;;;;;;;;;;;5095102;27;19964;-71
2023/07/12 01:43:21;;;;;;;;;;;;;;;;;;5072571;28;19924;-73
2023/07/12 01:45:47;;;;;;;;;;;;;;;;;;5074993;28;19916;-73
2023/07/12 01:48:15;;;;;;;;;;;;;;;;;;5071646;28;20384;-76
2023/07/12 01:50:42;;;;;;;;;;;;;;;;;;5071649;28;19923;-71
2023/07/12 01:53:08;;;;;;;;;;;;;;;;;;5082423;28;20413;-75
2023/07/12 01:55:35;;;;;;;;;;;;;;;;;;5057211;28;19919;-76
2023/07/12 01:58:01;;;;;;;;;;;;;;;;;;5074257;28;21789;-72
2023/07/12 02:00:26;;;;;;;;;;;;;;;;;;5075695;28;19923;-73
2023/07/12 02:02:51;;;;;;;;;;;;;;;;;;5093434;27;19924;-75
2023/07/12 02:05:18;;;;;;;;;;;;;;;;;;5072096;28;19920;-75
2023/07/12 02:07:46;;;;;;;;;;;;;;;;;;5092844;28;19923;-76
2023/07/12 02:10:11;;;;;;;;;;;;;;;;;;5093495;28;19920;-77
2023/07/12 02:12:36;;;;;;;;;;;;;;;;;;5070421;28;20038;-78
2023/07/12 02:15:04;;;;;;;;;;;;;;;;;;5073827;28;20451;-77
2023/07/12 02:17:29;;;;;;;;;;;;;;;;;;5071911;28;19919;-77
2023/07/12 02:19:55;;;;;;;;;;;;;;;;;;5069040;28;19927;-77
2023/07/12 02:22:23;;;;;;;;;;;;;;;;;;5074001;28;19926;-78
2023/07/12 02:24:51;;;;;;;;;;;;;;;;;;5091003;28;19930;-76
2023/07/12 02:27:19;;;;;;;;;;;;;;;;;;5073780;28;19919;-77
2023/07/12 02:29:49;;;;;;;;;;;;;;;;;;5094124;28;19954;-77
2023/07/12 02:32:17;;;;;;;;;;;;;;;;;;5092507;28;19918;-77
2023/07/12 02:34:42;;;;;;;;;;;;;;;;;;5072681;28;19915;-78
2023/07/12 02:37:10;;;;;;;;;;;;;;;;;;5073833;28;19996;-76
2023/07/12 02:39:35;;;;;;;;;;;;;;;;;;5072882;28;19924;-74
2023/07/12 02:42:01;;;;;;;;;;;;;;;;;;5071352;28;19965;-74
2023/07/12 02:44:26;;;;;;;;;;;;;;;;;;5053230;28;19919;-76
2023/07/12 02:46:51;;;;;;;;;;;;;;;;;;5069544;28;19919;-76
2023/07/12 02:49:17;;;;;;;;;;;;;;;;;;5076980;28;20519;-74
2023/07/12 02:51:43;;;;;;;;;;;;;;;;;;5042110;28;19924;-76
2023/07/12 02:54:08;;;;;;;;;;;;;;;;;;5091999;27;19977;-75
2023/07/12 02:59:52;;;;;;;;;;;;;;;;;;5075105;28;19970;-73
2023/07/12 03:02:18;;;;;;;;;;;;;;;;;;5077769;28;20862;-71
2023/07/12 03:04:43;;;;;;;;;;;;;;;;;;5060690;28;20482;-71
2023/07/12 03:07:09;;;;;;;;;;;;;;;;;;5054211;28;19927;-67
2023/07/12 03:09:34;;;;;;;;;;;;;;;;;;5086748;27;19931;-68
2023/07/12 03:12:02;;;;;;;;;;;;;;;;;;5056444;28;19915;-68
2023/07/12 03:14:28;;;;;;;;;;;;;;;;;;5029551;28;19917;-69
2023/07/12 03:16:54;;;;;;;;;;;;;;;;;;5064605;28;19992;-68
2023/07/12 03:19:21;;;;;;;;;;;;;;;;;;5057026;28;20202;-69
2023/07/12 03:21:49;;;;;;;;;;;;;;;;;;5057088;28;19959;-69
2023/07/12 03:24:15;;;;;;;;;;;;;;;;;;5053456;28;20019;-71
2023/07/12 03:26:40;;;;;;;;;;;;;;;;;;5053966;28;19920;-70
2023/07/12 03:29:05;;;;;;;;;;;;;;;;;;5057105;28;19915;-70
2023/07/12 03:31:31;;;;;;;;;;;;;;;;;;5057147;28;19927;-70
2023/07/12 03:33:56;;;;;;;;;;;;;;;;;;5060982;28;20302;-71
2023/07/12 03:36:24;;;;;;;;;;;;;;;;;;5054543;28;19916;-70
2023/07/12 03:38:49;;;;;;;;;;;;;;;;;;5047380;28;19920;-70
2023/07/12 03:41:17;;;;;;;;;;;;;;;;;;5075693;28;19968;-71
2023/07/12 03:43:42;;;;;;;;;;;;;;;;;;5058847;28;20345;-71
2023/07/12 03:46:08;;;;;;;;;;;;;;;;;;5040327;28;21943;-74
2023/07/12 03:48:34;;;;;;;;;;;;;;;;;;5058686;28;20041;-72
2023/07/12 03:50:59;;;;;;;;;;;;;;;;;;5064701;28;19924;-71
2023/07/12 03:53:24;;;;;;;;;;;;;;;;;;5066141;28;19920;-73
2023/07/12 03:55:50;;;;;;;;;;;;;;;;;;5071081;28;19958;-72
2023/07/12 03:58:15;;;;;;;;;;;;;;;;;;5070466;28;19959;-71
2023/07/12 04:00:40;;;;;;;;;;;;;;;;;;5067640;28;19922;-76
2023/07/12 04:03:08;;;;;;;;;;;;;;;;;;5070580;28;20041;-72
2023/07/12 04:05:34;;;;;;;;;;;;;;;;;;5065781;28;20614;-74
2023/07/12 04:08:04;;;;;;;;;;;;;;;;;;5045337;28;19916;-72
2023/07/12 04:10:30;;;;;;;;;;;;;;;;;;5070261;28;19957;-73
2023/07/12 04:12:58;;;;;;;;;;;;;;;;;;5061075;28;20474;-73
2023/07/12 04:15:26;;;;;;;;;;;;;;;;;;5052194;28;19919;-74
2023/07/12 04:17:54;;;;;;;;;;;;;;;;;;5064471;28;19954;-73
2023/07/12 04:20:22;;;;;;;;;;;;;;;;;;5065453;28;19920;-71
2023/07/12 04:22:52;;;;;;;;;;;;;;;;;;5054026;28;19951;-72
2023/07/12 04:25:20;;;;;;;;;;;;;;;;;;5048693;28;20888;-72
2023/07/12 04:27:45;;;;;;;;;;;;;;;;;;5071706;28;19924;-73
2023/07/12 04:30:11;;;;;;;;;;;;;;;;;;5074688;28;19916;-74
2023/07/12 04:32:36;;;;;;;;;;;;;;;;;;5068053;28;19944;-75
2023/07/12 04:35:02;;;;;;;;;;;;;;;;;;5065741;28;19920;-73
2023/07/12 04:37:27;;;;;;;;;;;;;;;;;;5074231;28;20262;-72
2023/07/12 04:39:56;;;;;;;;;;;;;;;;;;5074038;28;19920;-73
2023/07/12 04:42:21;;;;;;;;;;;;;;;;;;5074311;28;19916;-75
2023/07/12 04:44:46;;;;;;;;;;;;;;;;;;5092006;28;19928;-75
2023/07/12 04:47:12;;;;;;;;;;;;;;;;;;5068568;28;20808;-75
2023/07/12 04:49:40;;;;;;;;;;;;;;;;;;5081557;28;19912;-73
2023/07/12 04:55:21;;;;;;;;;;;;;;;;;;5096478;28;19938;-74
2023/07/12 04:57:49;;;;;;;;;;;;;;;;;;5103003;28;19930;-73
2023/07/12 05:00:15;;;;;;;;;;;;;;;;;;5084645;28;19912;-75
2023/07/12 05:02:40;;;;;;;;;;;;;;;;;;5069984;28;20012;-74
2023/07/12 05:05:05;;;;;;;;;;;;;;;;;;5069450;28;20354;-73
2023/07/12 05:07:33;;;;;;;;;;;;;;;;;;5088705;28;19922;-74
2023/07/12 05:10:01;;;;;;;;;;;;;;;;;;5089293;28;19920;-73
2023/07/12 05:12:29;;;;;;;;;;;;;;;;;;5081566;28;19922;-76
2023/07/12 05:14:59;;;;;;;;;;;;;;;;;;5083823;28;19933;-73
2023/07/12 05:17:28;;;;;;;;;;;;;;;;;;5079841;28;19912;-75
2023/07/12 05:19:58;;;;;;;;;;;;;;;;;;5077640;28;19920;-76
2023/07/12 05:22:26;;;;;;;;;;;;;;;;;;5093448;28;20041;-78
2023/07/12 05:24:52;;;;;;;;;;;;;;;;;;5078808;28;19916;-74
2023/07/12 05:27:19;;;;;;;;;;;;;;;;;;5096667;28;20675;-74
2023/07/12 05:29:44;;;;;;;;;;;;;;;;;;5057636;28;19953;-78
2023/07/12 05:32:10;;;;;;;;;;;;;;;;;;5060756;28;20019;-77
2023/07/12 05:34:35;;;;;;;;;;;;;;;;;;5074104;28;19947;-77
2023/07/12 05:37:00;;;;;;;;;;;;;;;;;;5074272;28;19955;-78
2023/07/12 05:39:28;;;;;;;;;;;;;;;;;;5096122;28;19916;-77
2023/07/12 05:41:53;;;;;;;;;;;;;;;;;;5083665;28;19997;-77
2023/07/12 05:44:19;;;;;;;;;;;;;;;;;;5075711;28;19924;-78
2023/07/12 05:46:44;;;;;;;;;;;;;;;;;;5085583;28;20552;-76
2023/07/12 05:49:11;;;;;;;;;;;;;;;;;;5068626;28;19912;-76
2023/07/12 05:51:36;;;;;;;;;;;;;;;;;;5106982;28;19922;-75
2023/07/12 05:54:02;;;;;;;;;;;;;;;;;;5072877;28;19911;-75
2023/07/12 05:56:27;;;;;;;;;;;;;;;;;;5087013;28;19951;-72
2023/07/12 05:58:53;;;;;;;;;;;;;;;;;;5064439;28;20373;-74
2023/07/12 06:01:26;;;;;;;;;;;;;;;;;;5071509;28;19915;-74
2023/07/12 06:03:53;;;;;;;;;;;;;;;;;;5103371;28;19920;-73
2023/07/12 06:06:18;;;;;;;;;;;;;;;;;;5084615;28;19916;-71
2023/07/12 06:08:47;;;;;;;;;;;;;;;;;;5087361;28;19912;-72
2023/07/12 06:11:12;;;;;;;;;;;;;;;;;;5093983;28;19961;-72
2023/07/12 06:13:40;;;;;;;;;;;;;;;;;;5083049;28;19922;-73
2023/07/12 06:16:05;;;;;;;;;;;;;;;;;;5066871;28;20453;-72
2023/07/12 06:18:33;;;;;;;;;;;;;;;;;;5063287;28;19930;-73
2023/07/12 06:20:58;;;;;;;;;;;;;;;;;;5097536;28;20305;-70
2023/07/12 06:23:24;;;;;;;;;;;;;;;;;;5062599;28;20389;-71
2023/07/12 06:25:49;;;;;;;;;;;;;;;;;;5078486;28;19920;-70
2023/07/12 06:31:31;;;;;;;;;;;;;;;;;;5094370;28;20677;-71
2023/07/12 06:33:59;;;;;;;;;;;;;;;;;;5073374;28;19982;-73
2023/07/12 06:36:24;;;;;;;;;;;;;;;;;;5074405;28;19919;-71
2023/07/12 06:38:50;;;;;;;;;;;;;;;;;;5056150;28;20317;-71
2023/07/12 06:41:16;;;;;;;;;;;;;;;;;;5075533;28;19926;-69
2023/07/12 06:43:41;;;;;;;;;;;;;;;;;;5085323;28;19920;-72
2023/07/12 06:46:06;;;;;;;;;;;;;;;;;;5056735;28;20053;-69
2023/07/12 06:48:32;;;;;;;;;;;;;;;;;;5055913;28;19916;-71
2023/07/12 06:54:17;;;;;;;;;;;;;;;;;;5077825;28;19927;-69
2023/07/12 06:56:42;;;;;;;;;;;;;;;;;;5078572;28;19920;-70
2023/07/12 06:59:10;;;;;;;;;;;;;;;;;;5041771;28;19920;-71
2023/07/12 07:01:38;;;;;;;;;;;;;;;;;;5059589;28;20002;-68
2023/07/12 07:04:07;;;;;;;;;;;;;;;;;;5027815;28;19935;-69
2023/07/12 07:06:36;;;;;;;;;;;;;;;;;;5055067;28;19931;-69
2023/07/12 07:09:04;;;;;;;;;;;;;;;;;;5069268;28;19924;-70
2023/07/12 07:11:30;;;;;;;;;;;;;;;;;;5041472;28;19920;-68
2023/07/12 07:13:55;;;;;;;;;;;;;;;;;;5060964;28;19927;-68
2023/07/12 07:16:21;;;;;;;;;;;;;;;;;;5062727;28;20818;-75
2023/07/12 07:18:49;;;;;;;;;;;;;;;;;;5062193;28;19924;-71
2023/07/12 07:21:14;;;;;;;;;;;;;;;;;;5060192;28;19915;-73
2023/07/12 07:23:39;;;;;;;;;;;;;;;;;;5058176;28;19954;-77
2023/07/12 07:26:05;;;;;;;;;;;;;;;;;;5060738;28;19924;-74
2023/07/12 07:28:30;;;;;;;;;;;;;;;;;;5045481;28;20386;-69
2023/07/12 07:31:00;;;;;;;;;;;;;;;;;;5074699;28;20674;-72
2023/07/12 07:33:28;;;;;;;;;;;;;;;;;;5056605;28;19960;-68
2023/07/12 07:35:56;;;;;;;;;;;;;;;;;;5078361;28;19920;-72
2023/07/12 07:38:28;;;;;;;;;;;;;;;;;;5047938;28;19920;-72
2023/07/12 07:40:57;;;;;;;;;;;;;;;;;;5062821;28;19920;-74
2023/07/12 07:43:22;;;;;;;;;;;;;;;;;;5033350;28;19920;-70
2023/07/12 07:45:50;;;;;;;;;;;;;;;;;;5044737;28;19981;-73
2023/07/12 07:48:17;;;;;;;;;;;;;;;;;;5061946;28;20011;-67
2023/07/12 07:50:45;;;;;;;;;;;;;;;;;;5050984;28;20056;-68
2023/07/12 07:53:16;;;;;;;;;;;;;;;;;;5057950;28;19958;-71
2023/07/12 07:55:42;;;;;;;;;;;;;;;;;;5092341;28;19912;-69
2023/07/12 07:58:09;;;;;;;;;;;;;;;;;;5076855;28;19915;-70
2023/07/12 08:00:37;;;;;;;;;;;;;;;;;;5076577;28;19961;-69
2023/07/12 08:03:02;;;;;;;;;;;;;;;;;;5076942;28;19953;-69
2023/07/12 08:05:28;;;;;;;;;;;;;;;;;;5075653;28;19920;-70
2023/07/12 08:08:02;;;;;;;;;;;;;;;;;;5098253;28;20458;-69
2023/07/12 08:10:32;;;;;;;;;;;;;;;;;;5058952;28;19920;-67
2023/07/12 08:13:05;;;;;;;;;;;;;;;;;;5073614;28;19908;-66
2023/07/12 08:15:33;;;;;;;;;;;;;;;;;;5090436;28;19919;-70
2023/07/12 08:18:01;;;;;;;;;;;;;;;;;;5081025;28;20441;-74
2023/07/12 08:20:27;;;;;;;;;;;;;;;;;;5062910;28;20377;-74
2023/07/12 08:22:53;;;;;;;;;;;;;;;;;;5067406;27;19923;-72
2023/07/12 08:25:22;;;;;;;;;;;;;;;;;;5084487;28;19916;-70
2023/07/12 08:27:50;;;;;;;;;;;;;;;;;;5080992;28;19912;-72
2023/07/12 08:30:18;;;;;;;;;;;;;;;;;;5082024;28;19974;-74
2023/07/12 08:32:43;;;;;;;;;;;;;;;;;;5100379;27;19918;-73
2023/07/12 08:38:35;;;;;;;;;;;;;;;;;;;;;
2023/07/12 08:41:03;;;;;;;;;;;;;;;;;;5090233;28;19915;-74
2023/07/12 08:43:31;;;;;;;;;;;;;;;;;;5082486;28;19931;-73
2023/07/12 08:45:59;;;;;;;;;;;;;;;;;;5063801;28;19915;-72
2023/07/12 08:48:38;;;;;;;;;;;;;;;;;;5065412;28;19920;-72
2023/07/12 08:51:12;;;;;;;;;;;;;;;;;;5080417;28;19920;-73
2023/07/12 08:53:39;;;;;;;;;;;;;;;;;;5064021;28;20291;-74
2023/07/12 08:56:05;;;;;;;;;;;;;;;;;;5065972;28;19920;-73
2023/07/12 08:58:33;;;;;;;;;;;;;;;;;;5077693;28;19961;-72
2023/07/12 09:01:05;;;;;;;;;;;;;;;;;;5067864;28;19923;-72
2023/07/12 09:03:36;;;;;;;;;;;;;;;;;;5064119;28;19931;-72
2023/07/12 09:06:02;;;;;;;;;;;;;;;;;;5056719;28;19916;-73
2023/07/12 09:08:30;;;;;;;;;;;;;;;;;;5077386;28;20420;-71
2023/07/12 09:10:59;;;;;;;;;;;;;;;;;;5071334;28;19916;-72
2023/07/12 09:13:27;;;;;;;;;;;;;;;;;;5061453;28;20369;-71
2023/07/12 09:19:16;;;;;;;;;;;;;;;;;;5074506;28;20470;-72
2023/07/12 09:21:43;;;;;;;;;;;;;;;;;;5064316;28;20309;-70
2023/07/12 09:24:14;;;;;;;;;;;;;;;;;;5083256;28;19924;-73
2023/07/12 09:26:41;;;;;;;;;;;;;;;;;;5077616;28;19916;-69
2023/07/12 09:29:09;;;;;;;;;;;;;;;;;;5063459;28;19969;-70
2023/07/12 09:31:36;;;;;;;;;;;;;;;;;;5074438;28;19924;-70
2023/07/12 09:34:03;;;;;;;;;;;;;;;;;;5069225;28;19921;-72
2023/07/12 09:36:28;;;;;;;;;;;;;;;;;;5064442;28;19995;-71
2023/07/12 09:38:56;;;;;;;;;;;;;;;;;;5055104;28;19920;-71
2023/07/12 09:41:22;;;;;;;;;;;;;;;;;;5039192;28;20006;-69
2023/07/12 09:43:47;;;;;;;;;;;;;;;;;;5054217;28;19924;-71
2023/07/12 09:46:12;;;;;;;;;;;;;;;;;;5061688;28;20364;-69
2023/07/12 09:48:38;;;;;;;;;;;;;;;;;;5056230;28;19924;-70
2023/07/12 09:51:03;;;;;;;;;;;;;;;;;;5053776;28;19931;-69
2023/07/12 09:53:29;;;;;;;;;;;;;;;;;;5054682;28;19939;-71
2023/07/12 09:55:54;;;;;;;;;;;;;;;;;;5053702;28;20383;-71
2023/07/12 09:58:24;;;;;;;;;;;;;;;;;;5037499;28;19965;-69
2023/07/12 10:00:50;;;;;;;;;;;;;;;;;;5072348;28;19920;-70
2023/07/12 10:03:15;;;;;;;;;;;;;;;;;;5052460;28;19947;-67
2023/07/12 10:05:43;;;;;;;;;;;;;;;;;;5073284;28;19930;-70
2023/07/12 10:08:09;;;;;;;;;;;;;;;;;;5053487;28;20351;-70
2023/07/12 10:10:38;;;;;;;;;;;;;;;;;;5053245;28;19951;-69
2023/07/12 10:13:03;;;;;;;;;;;;;;;;;;5053538;28;19927;-69
2023/07/12 10:15:28;;;;;;;;;;;;;;;;;;5052812;28;19916;-69
2023/07/12 10:17:54;;;;;;;;;;;;;;;;;;5037023;28;19940;-71
2023/07/12 10:20:22;;;;;;;;;;;;;;;;;;5048497;28;19927;-71
2023/07/12 10:22:47;;;;;;;;;;;;;;;;;;5033596;28;19924;-70
2023/07/12 10:25:13;;;;;;;;;;;;;;;;;;5038018;28;20000;-69
2023/07/12 10:27:45;;;;;;;;;;;;;;;;;;5070795;28;19969;-70
2023/07/12 10:30:11;;;;;;;;;;;;;;;;;;5072000;28;19927;-72
2023/07/12 10:32:36;;;;;;;;;;;;;;;;;;5062077;28;19920;-68
2023/07/12 10:35:04;;;;;;;;;;;;;;;;;;5053791;28;19974;-66
2023/07/12 10:40:46;;;;;;;;;;;;;;;;;;5071095;28;20057;-73
2023/07/12 10:43:11;;;;;;;;;;;;;;;;;;5037117;28;19919;-69
2023/07/12 10:45:36;;;;;;;;;;;;;;;;;;5052691;28;19920;-67
2023/07/12 10:48:02;;;;;;;;;;;;;;;;;;5071730;28;20015;-71
2023/07/12 10:50:27;;;;;;;;;;;;;;;;;;5037032;28;21778;-67
2023/07/12 10:52:55;;;;;;;;;;;;;;;;;;5055495;28;19920;-69
2023/07/12 10:55:20;;;;;;;;;;;;;;;;;;5071292;28;19965;-70
2023/07/12 10:57:46;;;;;;;;;;;;;;;;;;5046928;28;19932;-72
2023/07/12 11:00:11;;;;;;;;;;;;;;;;;;5049670;28;19955;-68
2023/07/12 11:02:41;;;;;;;;;;;;;;;;;;5070542;28;20003;-67
2023/07/12 11:05:07;;;;;;;;;;;;;;;;;;5053440;28;19923;-67
2023/07/12 11:07:32;;;;;;;;;;;;;;;;;;5054673;28;19920;-68
2023/07/12 11:09:58;;;;;;;;;;;;;;;;;;5052123;28;19915;-66
2023/07/12 11:12:23;;;;;;;;;;;;;;;;;;5045035;28;21122;-67
2023/07/12 11:14:49;;;;;;;;;;;;;;;;;;5069066;28;20858;-66
2023/07/12 11:17:17;;;;;;;;;;;;;;;;;;5051795;28;19998;-74
2023/07/12 11:19:42;;;;;;;;;;;;;;;;;;5050647;28;19959;-71
2023/07/12 11:22:07;;;;;;;;;;;;;;;;;;5034075;28;20046;-67
2023/07/12 11:24:33;;;;;;;;;;;;;;;;;;5070012;28;20490;-71
2023/07/12 11:26:58;;;;;;;;;;;;;;;;;;5057574;28;20485;-69
2023/07/12 11:29:24;;;;;;;;;;;;;;;;;;5051602;28;19920;-67
2023/07/12 11:31:49;;;;;;;;;;;;;;;;;;5049267;28;20080;-69
2023/07/12 11:34:14;;;;;;;;;;;;;;;;;;5068804;28;19974;-68
2023/07/12 11:36:43;;;;;;;;;;;;;;;;;;5050782;28;19969;-68
2023/07/12 11:39:08;;;;;;;;;;;;;;;;;;5033064;28;19924;-67
2023/07/12 11:41:33;;;;;;;;;;;;;;;;;;5050791;28;19959;-65
2023/07/12 11:43:59;;;;;;;;;;;;;;;;;;5067869;28;20015;-66
2023/07/12 11:46:24;;;;;;;;;;;;;;;;;;5029694;28;19966;-66
2023/07/12 11:48:52;;;;;;;;;;;;;;;;;;5050707;28;19964;-68
2023/07/12 11:51:17;;;;;;;;;;;;;;;;;;5068515;28;19932;-68
2023/07/12 11:53:45;;;;;;;;;;;;;;;;;;5049009;28;19927;-68
2023/07/12 11:56:13;;;;;;;;;;;;;;;;;;5051143;28;20715;-68
2023/07/12 11:58:38;;;;;;;;;;;;;;;;;;5073449;28;19916;-71
2023/07/12 12:01:04;;;;;;;;;;;;;;;;;;5039616;28;19920;-66
2023/07/12 12:03:30;;;;;;;;;;;;;;;;;;5038017;28;19940;-72
2023/07/12 12:05:55;;;;;;;;;;;;;;;;;;5057068;28;20020;-68
2023/07/12 12:08:20;;;;;;;;;;;;;;;;;;5039074;28;19920;-70
2023/07/12 12:10:45;;;;;;;;;;;;;;;;;;5056310;28;19931;-67
2023/07/12 12:13:11;;;;;;;;;;;;;;;;;;5054390;28;20561;-71
2023/07/12 12:15:36;;;;;;;;;;;;;;;;;;5054541;28;20639;-70
2023/07/12 12:18:01;;;;;;;;;;;;;;;;;;5075982;28;19920;-69
2023/07/12 12:20:28;;;;;;;;;;;;;;;;;;5072960;28;19924;-66
2023/07/12 12:22:54;;;;;;;;;;;;;;;;;;5059884;28;19952;-66
2023/07/12 12:25:22;;;;;;;;;;;;;;;;;;5054381;28;19916;-67
2023/07/12 12:27:48;;;;;;;;;;;;;;;;;;5064238;28;19973;-69
2023/07/12 12:30:19;;;;;;;;;;;;;;;;;;5076620;28;20061;-67
2023/07/12 12:32:44;;;;;;;;;;;;;;;;;;5037181;28;19927;-67
2023/07/12 12:35:10;;;;;;;;;;;;;;;;;;5039428;28;19916;-71
2023/07/12 12:37:36;;;;;;;;;;;;;;;;;;5077317;28;20022;-68
2023/07/12 12:40:02;;;;;;;;;;;;;;;;;;5076407;28;19922;-70
2023/07/12 12:42:30;;;;;;;;;;;;;;;;;;5038563;28;20286;-69
2023/07/12 12:44:55;;;;;;;;;;;;;;;;;;5056056;28;19926;-68
2023/07/12 12:47:21;;;;;;;;;;;;;;;;;;5056159;28;19924;-69
2023/07/12 12:49:46;;;;;;;;;;;;;;;;;;5056003;28;19920;-67
2023/07/12 12:55:42;;;;;;;;;;;;;;;;;;5095157;28;20039;-71
2023/07/12 12:58:07;;;;;;;;;;;;;;;;;;5095466;28;19916;-67
2023/07/12 13:00:32;;;;;;;;;;;;;;;;;;5073926;28;19959;-68
2023/07/12 13:02:58;;;;;;;;;;;;;;;;;;5075328;28;20538;-69
2023/07/12 13:05:23;;;;;;;;;;;;;;;;;;5075370;28;19916;-70
2023/07/12 13:07:49;;;;;;;;;;;;;;;;;;5089016;28;19965;-72
2023/07/12 13:10:15;;;;;;;;;;;;;;;;;;5093069;28;20532;-71
2023/07/12 13:12:43;;;;;;;;;;;;;;;;;;5069442;28;20034;-74
2023/07/12 13:15:11;;;;;;;;;;;;;;;;;;5051105;28;20002;-69
2023/07/12 13:17:36;;;;;;;;;;;;;;;;;;5054399;28;19920;-70
2023/07/12 13:20:02;;;;;;;;;;;;;;;;;;5072530;28;19923;-69
2023/07/12 13:22:27;;;;;;;;;;;;;;;;;;5073172;28;19920;-69
2023/07/12 13:24:53;;;;;;;;;;;;;;;;;;5094104;28;20307;-69
2023/07/12 13:27:20;;;;;;;;;;;;;;;;;;5071593;28;19927;-73
2023/07/12 13:29:46;;;;;;;;;;;;;;;;;;5072839;28;19927;-70
2023/07/12 13:32:11;;;;;;;;;;;;;;;;;;5071997;28;19916;-72
2023/07/12 13:34:37;;;;;;;;;;;;;;;;;;5068520;28;20042;-69
2023/07/12 13:37:02;;;;;;;;;;;;;;;;;;5073660;28;19919;-65
2023/07/12 13:39:30;;;;;;;;;;;;;;;;;;5073500;28;20043;-71
2023/07/12 13:41:56;;;;;;;;;;;;;;;;;;5093574;28;19920;-71
2023/07/12 13:44:21;;;;;;;;;;;;;;;;;;5077814;28;19939;-69
2023/07/12 13:46:46;;;;;;;;;;;;;;;;;;5054940;28;19961;-71
2023/07/12 13:49:12;;;;;;;;;;;;;;;;;;5076334;28;20737;-71
2023/07/12 13:51:37;;;;;;;;;;;;;;;;;;5092195;28;19919;-66
2023/07/12 13:54:03;;;;;;;;;;;;;;;;;;5056089;28;19950;-68
2023/07/12 13:56:31;;;;;;;;;;;;;;;;;;5056631;28;19919;-68
2023/07/12 13:58:56;;;;;;;;;;;;;;;;;;5092760;28;19927;-73
2023/07/12 14:01:23;;;;;;;;;;;;;;;;;;5070654;28;19916;-73
2023/07/12 14:03:48;;;;;;;;;;;;;;;;;;5073006;28;19951;-68
2023/07/12 14:06:13;;;;;;;;;;;;;;;;;;5091855;28;20022;-68
2023/07/12 14:08:39;;;;;;;;;;;;;;;;;;5056517;28;20038;-70
2023/07/12 14:11:06;;;;;;;;;;;;;;;;;;5072826;28;19919;-72
2023/07/12 14:13:32;;;;;;;;;;;;;;;;;;5070432;28;19927;-73
2023/07/12 14:15:57;;;;;;;;;;;;;;;;;;5056095;28;19931;-67
2023/07/12 14:18:22;;;;;;;;;;;;;;;;;;5054195;28;19956;-71
2023/07/12 14:20:51;;;;;;;;;;;;;;;;;;5077775;28;19920;-72
2023/07/12 14:23:16;;;;;;;;;;;;;;;;;;5071920;28;19931;-74
2023/07/12 14:25:44;;;;;;;;;;;;;;;;;;5089257;28;19915;-70
2023/07/12 14:28:12;;;;;;;;;;;;;;;;;;5055444;28;20072;-69
2023/07/12 14:30:38;;;;;;;;;;;;;;;;;;5073162;28;20539;-74
2023/07/12 14:33:04;;;;;;;;;;;;;;;;;;5069205;28;19931;-71
2023/07/12 14:35:29;;;;;;;;;;;;;;;;;;5052479;28;19927;-70
2023/07/12 14:37:56;;;;;;;;;;;;;;;;;;5073146;28;19937;-67
2023/07/12 14:40:22;;;;;;;;;;;;;;;;;;5054312;28;19916;-73
2023/07/12 14:46:04;;;;;;;;;;;;;;;;;;5090695;28;19938;-74
2023/07/12 14:48:29;;;;;;;;;;;;;;;;;;5073669;28;21045;-73
2023/07/12 14:50:55;;;;;;;;;;;;;;;;;;5091788;28;19920;-68
2023/07/12 14:53:22;;;;;;;;;;;;;;;;;;5078157;28;19993;-68
2023/07/12 14:55:47;;;;;;;;;;;;;;;;;;5055860;28;21133;-73
2023/07/12 14:58:13;;;;;;;;;;;;;;;;;;5066528;28;20002;-72
2023/07/12 15:00:38;;;;;;;;;;;;;;;;;;5078076;28;19968;-73
2023/07/12 15:03:04;;;;;;;;;;;;;;;;;;5069878;28;19919;-69
2023/07/12 15:05:31;;;;;;;;;;;;;;;;;;5074617;28;19920;-72
2023/07/12 15:11:13;;;;;;;;;;;;;;;;;;5091334;28;20454;-66
2023/07/12 15:13:41;;;;;;;;;;;;;;;;;;5053022;28;19924;-67
2023/07/12 15:16:09;;;;;;;;;;;;;;;;;;5072240;28;19928;-68
2023/07/12 15:18:37;;;;;;;;;;;;;;;;;;5069216;28;20527;-71
2023/07/12 15:21:05;;;;;;;;;;;;;;;;;;5090591;28;19973;-71
2023/07/12 15:23:34;;;;;;;;;;;;;;;;;;5070450;28;20340;-69
2023/07/12 15:25:59;;;;;;;;;;;;;;;;;;5068448;28;19916;-71
2023/07/12 15:28:25;;;;;;;;;;;;;;;;;;5054122;28;19926;-68
2023/07/12 15:30:53;;;;;;;;;;;;;;;;;;5072112;28;19971;-71
2023/07/12 15:33:21;;;;;;;;;;;;;;;;;;5069844;28;20324;-72
2023/07/12 15:35:47;;;;;;;;;;;;;;;;;;5054276;28;20414;-71
2023/07/12 15:38:12;;;;;;;;;;;;;;;;;;5071784;28;19958;-66
2023/07/12 15:40:37;;;;;;;;;;;;;;;;;;5070430;28;19922;-70
2023/07/12 15:43:03;;;;;;;;;;;;;;;;;;5075580;28;19999;-70
2023/07/12 15:45:29;;;;;;;;;;;;;;;;;;5071204;28;19940;-70
2023/07/12 15:47:56;;;;;;;;;;;;;;;;;;5053978;28;19915;-71
2023/07/12 15:50:22;;;;;;;;;;;;;;;;;;5070522;28;19928;-71
2023/07/12 15:52:47;;;;;;;;;;;;;;;;;;5089686;28;20001;-67
2023/07/12 15:55:13;;;;;;;;;;;;;;;;;;5068162;28;19965;-69
2023/07/12 15:57:40;;;;;;;;;;;;;;;;;;5069638;28;19946;-68
2023/07/12 16:00:05;;;;;;;;;;;;;;;;;;5089930;28;19920;-68
2023/07/12 16:02:33;;;;;;;;;;;;;;;;;;5070862;28;19968;-70
2023/07/12 16:05:02;;;;;;;;;;;;;;;;;;5069799;28;19927;-70
2023/07/12 16:07:27;;;;;;;;;;;;;;;;;;5076058;28;19916;-66
2023/07/12 16:09:54;;;;;;;;;;;;;;;;;;5066870;28;19920;-71
2023/07/12 16:12:21;;;;;;;;;;;;;;;;;;5071466;28;20796;-67
2023/07/12 16:14:47;;;;;;;;;;;;;;;;;;5070355;28;19924;-69
2023/07/12 16:17:14;;;;;;;;;;;;;;;;;;5090144;28;19916;-69
2023/07/12 16:19:40;;;;;;;;;;;;;;;;;;5090166;28;19916;-67
2023/07/12 16:22:05;;;;;;;;;;;;;;;;;;5070397;28;19919;-67
2023/07/12 16:24:31;;;;;;;;;;;;;;;;;;5053535;28;19916;-69
2023/07/12 16:26:57;;;;;;;;;;;;;;;;;;5047510;28;19920;-70
2023/07/12 16:29:25;;;;;;;;;;;;;;;;;;5070018;28;19959;-68
2023/07/12 16:31:54;;;;;;;;;;;;;;;;;;5070018;28;20010;-72
2023/07/12 16:34:20;;;;;;;;;;;;;;;;;;5050886;28;19923;-66
2023/07/12 16:36:48;;;;;;;;;;;;;;;;;;5053414;28;19927;-70
2023/07/12 16:39:14;;;;;;;;;;;;;;;;;;5052895;28;19924;-73
2023/07/12 16:41:42;;;;;;;;;;;;;;;;;;5068993;28;20032;-67
2023/07/12 16:44:10;;;;;;;;;;;;;;;;;;5070620;28;19953;-69
2023/07/12 16:46:35;;;;;;;;;;;;;;;;;;5058562;28;19919;-71
2023/07/12 16:49:04;;;;;;;;;;;;;;;;;;5053355;28;19927;-68
2023/07/12 16:51:33;;;;;;;;;;;;;;;;;;5057529;28;20310;-70
2023/07/12 16:54:03;;;;;;;;;;;;;;;;;;5093560;28;19931;-69
2023/07/12 16:56:28;;;;;;;;;;;;;;;;;;5093740;28;19931;-74
2023/07/12 16:58:56;;;;;;;;;;;;;;;;;;5073836;28;19919;-68
2023/07/12 17:01:21;;;;;;;;;;;;;;;;;;5073622;28;21919;-69
2023/07/12 17:03:47;;;;;;;;;;;;;;;;;;5074244;28;19915;-69
2023/07/12 17:06:15;;;;;;;;;;;;;;;;;;5055019;28;19919;-69
2023/07/12 17:08:40;;;;;;;;;;;;;;;;;;5056758;28;19971;-68
2023/07/12 17:11:08;;;;;;;;;;;;;;;;;;5073587;28;19965;-69
2023/07/12 17:13:33;;;;;;;;;;;;;;;;;;5070469;28;19924;-69
2023/07/12 17:16:01;;;;;;;;;;;;;;;;;;5093178;28;19934;-68
2023/07/12 17:18:27;;;;;;;;;;;;;;;;;;5070957;28;19920;-70